Time,TemperatureF,DewpointF,PressureIn,WindDirection,WindDirectionDegrees,WindSpeedMPH,WindSpeedGustMPH,Humidity,HourlyPrecipIn,Conditions,Clouds,dailyrainin,SoftwareType,DateUTC
2013-05-06 00:02:00,52.0,27.0,-100.00,ESE,115,3.0,6.0,38,0.00,,,-99.99,,2013-05-06 06:02:00,
2013-05-06 00:12:00,52.0,28.0,-100.00,ESE,115,3.0,6.0,38,0.00,,,-99.99,,2013-05-06 06:12:00,
2013-05-06 00:21:00,52.0,28.0,-100.00,ESE,115,3.0,6.0,38,0.00,,,-99.99,,2013-05-06 06:21:00,
2013-05-06 00:31:00,52.0,27.0,-100.00,SE,145,1.0,7.0,38,0.00,,,-99.99,,2013-05-06 06:31:00,
2013-05-06 00:41:00,50.0,27.0,-100.00,NNW,335,0.0,4.0,40,0.00,,,-99.99,,2013-05-06 06:41:00,
2013-05-06 00:52:00,49.0,27.0,-100.00,East,95,3.0,4.0,42,0.00,,,-99.99,,2013-05-06 06:52:00,
2013-05-06 01:01:00,48.0,27.0,-100.00,SSE,160,0.0,3.0,44,0.00,,,-99.99,,2013-05-06 07:01:00,
2013-05-06 01:11:00,48.0,28.0,-100.00,ESE,120,3.0,6.0,45,0.00,,,-99.99,,2013-05-06 07:11:00,
2013-05-06 01:22:00,47.0,28.0,-100.00,ESE,105,3.0,6.0,46,0.00,,,-99.99,,2013-05-06 07:22:00,
2013-05-06 01:31:00,46.0,28.0,-100.00,SE,135,1.0,3.0,47,0.00,,,-99.99,,2013-05-06 07:31:00,
2013-05-06 01:42:00,46.0,28.0,-100.00,SE,145,0.0,6.0,49,0.00,,,-99.99,,2013-05-06 07:42:00,
2013-05-06 01:52:00,46.0,28.0,-100.00,West,275,0.0,0.0,50,0.00,,,-99.99,,2013-05-06 07:52:00,
2013-05-06 02:01:00,45.0,29.0,-100.00,SW,235,1.0,2.0,53,0.00,,,-99.99,,2013-05-06 08:01:00,
2013-05-06 02:12:00,45.0,29.0,-100.00,SSW,195,0.0,0.0,54,0.00,,,-99.99,,2013-05-06 08:12:00,
2013-05-06 02:22:00,44.0,29.0,-100.00,SW,230,0.0,0.0,55,0.00,,,-99.99,,2013-05-06 08:22:00,
2013-05-06 02:31:00,44.0,30.0,-100.00,ESE,110,0.0,0.0,56,0.00,,,-99.99,,2013-05-06 08:31:00,
2013-05-06 02:41:00,44.0,30.0,-100.00,SSW,210,0.0,0.0,56,0.00,,,-99.99,,2013-05-06 08:41:00,
2013-05-06 02:52:00,44.0,30.0,-100.00,SE,130,0.0,3.0,57,0.00,,,-99.99,,2013-05-06 08:52:00,
2013-05-06 03:01:00,44.0,30.0,-100.00,South,190,0.0,0.0,58,0.00,,,-99.99,,2013-05-06 09:01:00,
2013-05-06 03:11:00,44.0,31.0,-100.00,North,0,0.0,1.0,59,0.00,,,-99.99,,2013-05-06 09:11:00,
2013-05-06 03:22:00,44.0,31.0,-100.00,SE,125,0.0,3.0,58,0.00,,,-99.99,,2013-05-06 09:22:00,
2013-05-06 03:32:00,44.0,31.0,-100.00,SE,145,0.0,0.0,57,0.00,,,-99.99,,2013-05-06 09:32:00,
2013-05-06 03:42:00,45.0,31.0,-100.00,South,170,0.0,2.0,57,0.00,,,-99.99,,2013-05-06 09:42:00,
2013-05-06 03:53:00,45.0,31.0,-100.00,ESE,120,0.0,0.0,57,0.00,,,-99.99,,2013-05-06 09:53:00,
2013-05-06 04:02:00,45.0,31.0,-100.00,WNW,300,0.0,0.0,58,0.00,,,-99.99,,2013-05-06 10:02:00,
2013-05-06 04:12:00,45.0,32.0,-100.00,NW,310,0.0,0.0,60,0.00,,,-99.99,,2013-05-06 10:12:00,
2013-05-06 04:22:00,44.0,32.0,-100.00,NNW,330,0.0,1.0,61,0.00,,,-99.99,,2013-05-06 10:22:00,
2013-05-06 04:32:00,44.0,32.0,-100.00,SW,215,0.0,0.0,62,0.00,,,-99.99,,2013-05-06 10:32:00,
2013-05-06 04:41:00,44.0,32.0,-100.00,SSW,200,0.0,0.0,62,0.00,,,-99.99,,2013-05-06 10:41:00,
2013-05-06 04:52:00,44.0,32.0,-100.00,SSW,205,0.0,0.0,62,0.00,,,-99.99,,2013-05-06 10:52:00,
2013-05-06 05:02:00,44.0,32.0,-100.00,SSW,210,0.0,0.0,62,0.00,,,-99.99,,2013-05-06 11:02:00,
2013-05-06 05:11:00,44.0,33.0,-100.00,North,0,0.0,0.0,63,0.00,,,-99.99,,2013-05-06 11:11:00,
2013-05-06 05:22:00,44.0,33.0,-100.00,SSW,195,0.0,0.0,63,0.00,,,-99.99,,2013-05-06 11:22:00,
2013-05-06 05:31:00,44.0,33.0,-100.00,SW,235,0.0,0.0,64,0.00,,,-99.99,,2013-05-06 11:31:00,
2013-05-06 05:42:00,44.0,33.0,-100.00,SSW,210,0.0,0.0,64,0.00,,,-99.99,,2013-05-06 11:42:00,
2013-05-06 05:52:00,44.0,33.0,-100.00,SSE,160,0.0,0.0,63,0.00,,,-99.99,,2013-05-06 11:52:00,
2013-05-06 06:01:00,45.0,33.0,-100.00,East,85,0.0,1.0,63,0.00,,,-99.99,,2013-05-06 12:01:00,
2013-05-06 06:12:00,45.0,33.0,-100.00,SSW,210,0.0,0.0,63,0.00,,,-99.99,,2013-05-06 12:12:00,
2013-05-06 06:21:00,45.0,33.0,-100.00,East,95,0.0,0.0,64,0.00,,,-99.99,,2013-05-06 12:21:00,
2013-05-06 06:32:00,45.0,34.0,-100.00,NNE,15,0.0,0.0,65,0.00,,,-99.99,,2013-05-06 12:32:00,
2013-05-06 06:41:00,45.0,34.0,-100.00,West,265,0.0,0.0,65,0.00,,,-99.99,,2013-05-06 12:41:00,
2013-05-06 06:51:00,45.0,34.0,-100.00,SW,235,0.0,0.0,65,0.00,,,-99.99,,2013-05-06 12:51:00,
2013-05-06 07:01:00,44.0,33.0,-100.00,SSW,210,0.0,0.0,65,0.00,,,-99.99,,2013-05-06 13:01:00,
2013-05-06 07:11:00,45.0,34.0,-100.00,East,100,0.0,2.0,65,0.00,,,-99.99,,2013-05-06 13:11:00,
2013-05-06 07:21:00,46.0,34.0,-100.00,South,175,0.0,2.0,64,0.00,,,-99.99,,2013-05-06 13:21:00,
2013-05-06 07:31:00,46.0,35.0,-100.00,East,95,0.0,3.0,64,0.00,,,-99.99,,2013-05-06 13:31:00,
2013-05-06 07:42:00,46.0,35.0,-100.00,South,190,0.0,2.0,63,0.00,,,-99.99,,2013-05-06 13:42:00,
2013-05-06 07:52:00,46.0,34.0,-100.00,South,190,0.0,1.0,61,0.00,,,-99.99,,2013-05-06 13:52:00,
2013-05-06 08:01:00,47.0,34.0,-100.00,SSW,210,0.0,1.0,60,0.00,,,-99.99,,2013-05-06 14:01:00,
2013-05-06 08:11:00,47.0,34.0,-100.00,WSW,245,0.0,0.0,59,0.00,,,-99.99,,2013-05-06 14:11:00,
2013-05-06 08:21:00,48.0,35.0,-100.00,SW,235,0.0,0.0,58,0.00,,,-99.99,,2013-05-06 14:21:00,
2013-05-06 08:32:00,49.0,35.0,-100.00,SSE,150,0.0,0.0,57,0.00,,,-99.99,,2013-05-06 14:32:00,
2013-05-06 08:42:00,50.0,35.0,-100.00,South,170,0.0,0.0,56,0.00,,,-99.99,,2013-05-06 14:42:00,
2013-05-06 08:51:00,53.0,37.0,-100.00,NNE,30,1.0,2.0,54,0.00,,,-99.99,,2013-05-06 14:51:00,
2013-05-06 09:01:00,53.0,36.0,-100.00,NNE,15,0.0,3.0,51,0.00,,,-99.99,,2013-05-06 15:01:00,
2013-05-06 09:11:00,54.0,35.0,-100.00,NE,40,4.0,7.0,49,0.00,,,-99.99,,2013-05-06 15:11:00,
2013-05-06 09:21:00,56.0,36.0,-100.00,NNE,15,4.0,6.0,46,0.00,,,-99.99,,2013-05-06 15:21:00,
2013-05-06 09:33:00,56.0,36.0,-100.00,NE,45,2.0,7.0,45,0.00,,,-99.99,,2013-05-06 15:33:00,
2013-05-06 09:42:00,57.0,35.0,-100.00,North,0,2.0,9.0,43,0.00,,,-99.99,,2013-05-06 15:42:00,
2013-05-06 09:53:00,58.0,35.0,-100.00,NNW,340,4.0,7.0,42,0.00,,,-99.99,,2013-05-06 15:53:00,
2013-05-06 10:03:00,59.0,35.0,-100.00,NW,325,4.0,7.0,40,0.00,,,-99.99,,2013-05-06 16:03:00,
2013-05-06 10:13:00,59.0,35.0,-100.00,NE,35,0.0,7.0,39,0.00,,,-99.99,,2013-05-06 16:13:00,
2013-05-06 10:23:00,61.0,35.0,-100.00,SSW,205,1.0,4.0,38,0.00,,,-99.99,,2013-05-06 16:23:00,
2013-05-06 10:32:00,62.0,36.0,-100.00,WNW,285,4.0,9.0,37,0.00,,,-99.99,,2013-05-06 16:32:00,
2013-05-06 10:41:00,63.0,36.0,-100.00,West,265,3.0,7.0,36,0.00,,,-99.99,,2013-05-06 16:41:00,
2013-05-06 10:52:00,63.0,36.0,-100.00,West,270,1.0,9.0,35,0.00,,,-99.99,,2013-05-06 16:52:00,
2013-05-06 11:02:00,63.0,35.0,-100.00,NW,305,3.0,7.0,34,0.00,,,-99.99,,2013-05-06 17:02:00,
2013-05-06 11:12:00,62.0,34.0,-100.00,West,280,1.0,9.0,34,0.00,,,-99.99,,2013-05-06 17:12:00,
2013-05-06 11:23:00,62.0,35.0,-100.00,West,270,2.0,6.0,35,0.00,,,-99.99,,2013-05-06 17:23:00,
2013-05-06 11:31:00,62.0,34.0,-100.00,NW,305,1.0,6.0,35,0.00,,,-99.99,,2013-05-06 17:31:00,
2013-05-06 11:42:00,62.0,34.0,-100.00,West,260,2.0,5.0,35,0.00,,,-99.99,,2013-05-06 17:42:00,
2013-05-06 11:52:00,62.0,35.0,-100.00,West,275,2.0,6.0,35,0.00,,,-99.99,,2013-05-06 17:52:00,
2013-05-06 12:01:00,63.0,34.0,-100.00,West,275,1.0,5.0,34,0.00,,,-99.99,,2013-05-06 18:01:00,
2013-05-06 12:12:00,64.0,35.0,-100.00,SW,235,1.0,4.0,33,0.00,,,-99.99,,2013-05-06 18:12:00,
2013-05-06 12:21:00,64.0,34.0,-100.00,West,275,1.0,5.0,32,0.00,,,-99.99,,2013-05-06 18:21:00,
2013-05-06 12:31:00,63.0,33.0,-100.00,West,260,1.0,4.0,32,0.00,,,-99.99,,2013-05-06 18:31:00,
2013-05-06 12:43:00,63.0,32.0,-100.00,WNW,285,0.0,3.0,31,0.00,,,-99.99,,2013-05-06 18:43:00,
2013-05-06 12:52:00,63.0,33.0,-100.00,SE,145,2.0,7.0,31,0.00,,,-99.99,,2013-05-06 18:52:00,
2013-05-06 13:01:00,62.0,33.0,-100.00,SSW,200,6.0,14.0,32,0.00,,,-99.99,,2013-05-06 19:01:00,
2013-05-06 13:11:00,62.0,33.0,-100.00,SSE,165,4.0,9.0,33,0.00,,,-99.99,,2013-05-06 19:11:00,
2013-05-06 13:22:00,63.0,34.0,-100.00,SW,215,4.0,7.0,33,0.00,,,-99.99,,2013-05-06 19:22:00,
2013-05-06 13:32:00,64.0,34.0,-100.00,SW,235,2.0,7.0,32,0.00,,,-99.99,,2013-05-06 19:32:00,
2013-05-06 13:41:00,65.0,34.0,-100.00,SSW,210,0.0,4.0,32,0.00,,,-99.99,,2013-05-06 19:41:00,
2013-05-06 13:52:00,67.0,36.0,-100.00,NW,305,2.0,6.0,31,0.00,,,-99.99,,2013-05-06 19:52:00,
2013-05-06 14:01:00,69.0,36.0,-100.00,SW,235,2.0,7.0,30,0.00,,,-99.99,,2013-05-06 20:01:00,
2013-05-06 14:11:00,68.0,35.0,-100.00,WSW,250,1.0,8.0,29,0.00,,,-99.99,,2013-05-06 20:11:00,
2013-05-06 14:21:00,67.0,34.0,-100.00,West,260,4.0,6.0,29,0.00,,,-99.99,,2013-05-06 20:21:00,
2013-05-06 14:32:00,65.0,33.0,-100.00,NW,325,9.0,15.0,29,0.00,,,-99.99,,2013-05-06 20:32:00,
2013-05-06 14:41:00,63.0,33.0,-100.00,West,280,6.0,13.0,31,0.00,,,-99.99,,2013-05-06 20:41:00,
2013-05-06 14:52:00,62.0,33.0,-100.00,WNW,290,7.0,15.0,33,0.00,,,-99.99,,2013-05-06 20:52:00,
2013-05-06 15:01:00,61.0,33.0,-100.00,West,260,5.0,14.0,35,0.00,,,-99.99,,2013-05-06 21:01:00,
2013-05-06 15:11:00,59.0,32.0,-100.00,WSW,255,6.0,14.0,36,0.00,,,-99.99,,2013-05-06 21:11:00,
2013-05-06 15:21:00,58.0,33.0,-100.00,WSW,245,2.0,9.0,38,0.00,,,-99.99,,2013-05-06 21:21:00,
2013-05-06 15:32:00,57.0,32.0,-100.00,SSW,200,4.0,7.0,39,0.00,,,-99.99,,2013-05-06 21:32:00,
2013-05-06 15:42:00,53.0,33.0,-100.00,SE,135,15.0,26.0,45,0.10,,,-99.99,,2013-05-06 21:42:00,
2013-05-06 15:53:00,50.0,37.0,-100.00,SSE,150,4.0,19.0,59,0.10,,,-99.99,,2013-05-06 21:53:00,
2013-05-06 16:03:00,49.0,39.0,-100.00,SE,135,2.0,9.0,68,0.00,,,-99.99,,2013-05-06 22:03:00,
2013-05-06 16:12:00,49.0,41.0,-100.00,NNE,25,1.0,6.0,73,0.00,,,-99.99,,2013-05-06 22:12:00,
2013-05-06 16:22:00,49.0,42.0,-100.00,NW,315,6.0,7.0,77,0.00,,,-99.99,,2013-05-06 22:22:00,
2013-05-06 16:33:00,49.0,42.0,-100.00,West,265,0.0,11.0,78,0.00,,,-99.99,,2013-05-06 22:33:00,
2013-05-06 16:45:00,49.0,43.0,-100.00,WSW,250,0.0,1.0,79,0.00,,,-99.99,,2013-05-06 22:45:00,
2013-05-06 16:52:00,49.0,43.0,-100.00,WSW,245,0.0,3.0,80,0.00,,,-99.99,,2013-05-06 22:52:00,
2013-05-06 17:02:00,48.0,43.0,-100.00,NW,315,2.0,7.0,80,0.00,,,-99.99,,2013-05-06 23:02:00,
2013-05-06 17:12:00,48.0,43.0,-100.00,West,275,1.0,6.0,80,0.00,,,-99.99,,2013-05-06 23:12:00,
2013-05-06 17:22:00,48.0,43.0,-100.00,West,260,0.0,6.0,80,0.00,,,-99.99,,2013-05-06 23:22:00,
2013-05-06 17:31:00,49.0,43.0,-100.00,WSW,250,0.0,3.0,80,0.00,,,-99.99,,2013-05-06 23:31:00,
2013-05-06 17:41:00,48.0,42.0,-100.00,West,265,1.0,6.0,79,0.00,,,-99.99,,2013-05-06 23:41:00,
2013-05-06 17:52:00,48.0,42.0,-100.00,WSW,255,0.0,2.0,79,0.00,,,-99.99,,2013-05-06 23:52:00,
2013-05-06 18:01:00,48.0,42.0,-100.00,WSW,245,0.0,3.0,80,0.00,,,-99.99,,2013-05-07 00:01:00,
2013-05-06 18:11:00,48.0,42.0,-100.00,West,260,0.0,0.0,80,0.00,,,-99.99,,2013-05-07 00:11:00,
2013-05-06 18:21:00,48.0,42.0,-100.00,NW,320,0.0,4.0,80,0.00,,,-99.99,,2013-05-07 00:21:00,
2013-05-06 18:31:00,48.0,42.0,-100.00,NNW,335,3.0,6.0,80,0.00,,,-99.99,,2013-05-07 00:31:00,
2013-05-06 18:41:00,47.0,42.0,-100.00,WNW,290,2.0,6.0,81,0.00,,,-99.99,,2013-05-07 00:41:00,
2013-05-06 18:51:00,47.0,42.0,-100.00,NW,315,1.0,6.0,81,0.00,,,-99.99,,2013-05-07 00:51:00,
2013-05-06 19:01:00,48.0,42.0,-100.00,NNW,340,2.0,4.0,82,0.00,,,-99.99,,2013-05-07 01:01:00,
2013-05-06 19:11:00,47.0,42.0,-100.00,North,0,2.0,4.0,82,0.00,,,-99.99,,2013-05-07 01:11:00,
2013-05-06 19:21:00,47.0,42.0,-100.00,North,355,0.0,4.0,82,0.00,,,-99.99,,2013-05-07 01:21:00,
2013-05-06 19:31:00,47.0,42.0,-100.00,North,0,0.0,0.0,82,0.00,,,-99.99,,2013-05-07 01:31:00,
2013-05-06 19:42:00,47.0,42.0,-100.00,West,280,0.0,1.0,82,0.00,,,-99.99,,2013-05-07 01:42:00,
2013-05-06 19:52:00,47.0,42.0,-100.00,WNW,285,0.0,0.0,81,0.00,,,-99.99,,2013-05-07 01:52:00,
2013-05-06 20:02:00,47.0,41.0,-100.00,WNW,285,0.0,1.0,81,0.00,,,-99.99,,2013-05-07 02:02:00,
2013-05-06 20:11:00,47.0,42.0,-100.00,WNW,290,0.0,1.0,81,0.00,,,-99.99,,2013-05-07 02:11:00,
2013-05-06 20:21:00,47.0,41.0,-100.00,West,265,0.0,3.0,81,0.00,,,-99.99,,2013-05-07 02:21:00,
2013-05-06 20:31:00,47.0,41.0,-100.00,SW,230,0.0,0.0,81,0.00,,,-99.99,,2013-05-07 02:31:00,
2013-05-06 20:41:00,46.0,41.0,-100.00,WSW,250,0.0,0.0,81,0.00,,,-99.99,,2013-05-07 02:41:00,
2013-05-06 20:51:00,46.0,41.0,-100.00,WSW,255,0.0,0.0,81,0.00,,,-99.99,,2013-05-07 02:51:00,
2013-05-06 21:01:00,46.0,41.0,-100.00,WSW,255,0.0,0.0,81,0.00,,,-99.99,,2013-05-07 03:01:00,
2013-05-06 21:11:00,46.0,41.0,-100.00,SSW,210,0.0,0.0,82,0.00,,,-99.99,,2013-05-07 03:11:00,
2013-05-06 21:21:00,46.0,41.0,-100.00,SW,235,1.0,4.0,81,0.10,,,-99.99,,2013-05-07 03:21:00,
2013-05-06 21:32:00,45.0,40.0,-100.00,SW,225,1.0,3.0,82,0.10,,,-99.99,,2013-05-07 03:32:00,
2013-05-06 21:42:00,44.0,39.0,-100.00,NE,50,0.0,1.0,82,0.00,,,-99.99,,2013-05-07 03:42:00,
2013-05-06 21:53:00,44.0,39.0,-100.00,East,100,0.0,0.0,83,0.00,,,-99.99,,2013-05-07 03:53:00,
2013-05-06 22:02:00,44.0,39.0,-100.00,ESE,120,0.0,0.0,83,0.00,,,-99.99,,2013-05-07 04:02:00,
2013-05-06 22:12:00,44.0,39.0,-100.00,SSW,205,0.0,0.0,84,0.00,,,-99.99,,2013-05-07 04:12:00,
2013-05-06 22:23:00,44.0,39.0,-100.00,South,190,0.0,0.0,84,0.00,,,-99.99,,2013-05-07 04:23:00,
2013-05-06 22:33:00,44.0,40.0,-100.00,East,95,0.0,4.0,85,0.00,,,-99.99,,2013-05-07 04:33:00,
2013-05-06 22:42:00,43.0,39.0,-100.00,NNW,345,0.0,3.0,85,0.00,,,-99.99,,2013-05-07 04:42:00,
2013-05-06 22:52:00,43.0,39.0,-100.00,SSE,160,1.0,3.0,85,0.00,,,-99.99,,2013-05-07 04:52:00,
2013-05-06 23:02:00,44.0,40.0,-100.00,NE,35,0.0,0.0,85,0.00,,,-99.99,,2013-05-07 05:02:00,
2013-05-06 23:12:00,44.0,40.0,-100.00,NW,325,2.0,4.0,86,0.00,,,-99.99,,2013-05-07 05:12:00,
2013-05-06 23:22:00,43.0,39.0,-100.00,ENE,65,0.0,0.0,86,0.00,,,-99.99,,2013-05-07 05:22:00,
2013-05-06 23:32:00,43.0,39.0,-100.00,SSW,210,0.0,0.0,86,0.00,,,-99.99,,2013-05-07 05:32:00,
2013-05-06 23:42:00,43.0,39.0,-100.00,WSW,240,0.0,0.0,86,0.00,,,-99.99,,2013-05-07 05:42:00,
2013-05-06 23:51:00,43.0,39.0,-100.00,WNW,290,0.0,0.0,86,0.00,,,-99.99,,2013-05-07 05:51:00,